Time;durP1;ratioP1;P1;durP2;ratioP2;P2;SDS_P1;SDS_P2;PMS_P1;PMS_P2;Temp;Humidity;BMP_temperature;BMP_pressure;BME280_temperature;BME280_humidity;BME280_pressure;Samples;Min_cycle;Max_cycle;Signal;HPM_P1;HPM_P2
2023/11/18 00:00:29;;;;;;;11.00;9.30;;;;;;;0.25;100.00;99057.44;109603;1251;66818;-67
2023/11/18 00:02:56;;;;;;;11.10;9.60;;;;;;;0.26;100.00;99063.58;109427;1251;72690;-67
2023/11/18 00:05:23;;;;;;;10.50;9.30;;;;;;;0.28;100.00;99060.65;109448;1253;61259;-68
2023/11/18 00:07:50;;;;;;;11.10;9.90;;;;;;;0.30;100.00;99059.48;109347;1251;60097;-67
2023/11/18 00:10:17;;;;;;;11.20;10.10;;;;;;;0.33;100.00;99065.71;109448;1255;74940;-67
2023/11/18 00:12:43;;;;;;;10.50;9.40;;;;;;;0.34;100.00;99066.11;109477;1251;68334;-67
2023/11/18 00:15:11;;;;;;;10.50;9.50;;;;;;;0.36;100.00;99069.47;109479;1251;59361;-67
2023/11/18 00:17:38;;;;;;;10.40;9.40;;;;;;;0.38;100.00;99075.42;109478;1251;60990;-67
2023/11/18 00:20:09;;;;;;;9.80;8.90;;;;;;;0.39;100.00;99075.14;109520;1251;59008;-67
2023/11/18 00:22:35;;;;;;;10.20;9.10;;;;;;;0.41;100.00;99079.91;109494;1251;73207;-67
2023/11/18 00:25:05;;;;;;;11.20;10.00;;;;;;;0.42;100.00;99084.70;109525;1251;66058;-67
2023/11/18 00:27:31;;;;;;;10.10;9.10;;;;;;;0.44;100.00;99082.48;109452;1251;71852;-67
2023/11/18 00:29:58;;;;;;;10.60;9.50;;;;;;;0.46;100.00;99084.58;109502;1251;59000;-67
2023/11/18 00:32:24;;;;;;;10.70;9.60;;;;;;;0.48;100.00;99082.84;109508;1251;59012;-67
2023/11/18 00:34:51;;;;;;;10.10;9.10;;;;;;;0.50;100.00;99081.84;109662;1250;73257;-67
2023/11/18 00:37:18;;;;;;;10.90;9.80;;;;;;;0.51;100.00;99084.54;109684;1251;67936;-67
2023/11/18 00:39:45;;;;;;;9.90;8.80;;;;;;;0.52;100.00;99086.75;109700;1251;59075;-67
2023/11/18 00:42:11;;;;;;;10.70;9.60;;;;;;;0.52;100.00;99085.14;109618;1250;61198;-67
2023/11/18 00:44:38;;;;;;;11.10;10.00;;;;;;;0.54;100.00;99090.77;109626;1251;59477;-67
2023/11/18 00:47:05;;;;;;;10.90;9.80;;;;;;;0.54;100.00;99084.28;109604;1251;73424;-67
2023/11/18 00:49:31;;;;;;;9.70;8.70;;;;;;;0.55;100.00;99083.52;109574;1254;67869;-67
2023/11/18 00:51:58;;;;;;;11.60;10.50;;;;;;;0.55;100.00;99081.91;109683;1251;72419;-67
2023/11/18 00:54:25;;;;;;;12.20;11.00;;;;;;;0.56;100.00;99080.09;109712;1251;60551;-67
2023/11/18 00:56:51;;;;;;;11.10;10.00;;;;;;;0.56;100.00;99085.86;109607;1250;58952;-67
2023/11/18 00:59:18;;;;;;;10.40;9.30;;;;;;;0.56;100.00;99082.55;109651;1251;59415;-67
2023/11/18 01:01:44;;;;;;;10.40;9.30;;;;;;;0.57;100.00;99084.79;109716;1251;59047;-67
2023/11/18 01:04:11;;;;;;;11.60;10.30;;;;;;;0.57;100.00;99081.07;109643;1251;71435;-67
2023/11/18 01:06:38;;;;;;;12.20;10.70;;;;;;;0.57;100.00;99076.05;109643;1251;59182;-67
2023/11/18 01:09:07;;;;;;;12.50;11.10;;;;;;;0.56;100.00;99074.86;109675;1251;58975;-67
2023/11/18 01:11:33;;;;;;;12.50;11.10;;;;;;;0.56;100.00;99073.48;109535;1254;74322;-66
2023/11/18 01:14:00;;;;;;;13.50;12.10;;;;;;;0.56;100.00;99080.98;109641;1251;67669;-66
2023/11/18 01:16:28;;;;;;;11.70;10.50;;;;;;;0.56;100.00;99080.10;109647;1251;71173;-67
2023/11/18 01:18:54;;;;;;;12.40;11.10;;;;;;;0.57;100.00;99078.33;109612;1253;61140;-67
2023/11/18 01:21:21;;;;;;;11.80;10.70;;;;;;;0.57;100.00;99077.73;109616;1251;59067;-67
2023/11/18 01:23:48;;;;;;;14.30;12.80;;;;;;;0.58;100.00;99078.91;109700;1251;73389;-66
2023/11/18 01:26:15;;;;;;;13.60;12.10;;;;;;;0.59;100.00;99075.91;109658;1252;67930;-66
2023/11/18 01:28:43;;;;;;;12.30;11.10;;;;;;;0.60;100.00;99077.23;109674;1251;72597;-67
2023/11/18 01:31:09;;;;;;;13.80;12.40;;;;;;;0.59;100.00;99074.13;109604;1250;61180;-66
2023/11/18 01:33:40;;;;;;;13.40;11.90;;;;;;;0.59;100.00;99074.98;109679;1251;58979;-66
2023/11/18 01:36:08;;;;;;;13.80;12.20;;;;;;;0.60;100.00;99074.55;109621;1251;72270;-66
2023/11/18 01:38:37;;;;;;;13.40;12.10;;;;;;;0.61;100.00;99077.63;109620;1251;67055;-66
2023/11/18 01:41:05;;;;;;;14.20;11.70;;;;;;;0.62;100.00;99074.93;109696;1250;71630;-65
2023/11/18 01:43:32;;;;;;;14.30;12.80;;;;;;;0.63;100.00;99077.45;109599;1251;61399;-65
2023/11/18 01:46:03;;;;;;;13.00;11.70;;;;;;;0.64;100.00;99076.70;109642;1251;60198;-66
2023/11/18 01:48:31;;;;;;;12.30;11.10;;;;;;;0.66;100.00;99080.45;109660;1251;73386;-65
2023/11/18 01:50:58;;;;;;;14.70;12.50;;;;;;;0.67;100.00;99080.48;109648;1251;67780;-66
2023/11/18 01:53:24;;;;;;;12.60;11.40;;;;;;;0.68;100.00;99081.26;109657;1251;71167;-65
2023/11/18 01:55:51;;;;;;;11.90;10.70;;;;;;;0.69;100.00;99080.02;109655;1251;61013;-65
2023/11/18 01:58:19;;;;;;;12.50;11.20;;;;;;;0.71;100.00;99084.55;109407;1251;60248;-65
2023/11/18 02:00:46;;;;;;;12.40;11.10;;;;;;;0.72;100.00;99089.39;109657;1251;74592;-66
2023/11/18 02:03:13;;;;;;;14.50;11.90;;;;;;;0.73;100.00;99091.58;109622;1251;68023;-66
2023/11/18 02:05:39;;;;;;;13.00;11.60;;;;;;;0.74;100.00;99095.52;109597;1251;71743;-66
2023/11/18 02:08:08;;;;;;;12.50;11.20;;;;;;;0.74;100.00;99095.65;109602;1251;60996;-66
2023/11/18 02:10:47;;;;;;;12.00;10.80;;;;;;;0.76;100.00;99092.05;109668;1251;60128;-66
2023/11/18 02:13:24;;;;;;;14.50;13.00;;;;;;;0.77;100.00;99089.02;109597;1251;74554;-67
2023/11/18 02:15:56;;;;;;;13.30;11.40;;;;;;;0.77;100.00;99091.77;109606;1251;66747;-66
2023/11/18 02:18:28;;;;;;;12.40;11.10;;;;;;;0.76;100.00;99092.34;109519;1251;72578;-66
2023/11/18 02:20:58;;;;;;;12.30;11.00;;;;;;;0.76;100.00;99095.13;109546;1251;61118;-66
2023/11/18 02:23:28;;;;;;;13.00;11.50;;;;;;;0.76;100.00;99096.35;109525;1251;60208;-67
2023/11/18 02:25:58;;;;;;;13.20;11.80;;;;;;;0.77;100.00;99100.52;109681;1251;73268;-66
2023/11/18 02:28:25;;;;;;;12.70;11.40;;;;;;;0.78;100.00;99098.49;109573;1251;66690;-66
2023/11/18 02:30:55;;;;;;;11.40;10.30;;;;;;;0.79;100.00;99101.88;109657;1251;72364;-66
2023/11/18 02:33:30;;;;;;;12.00;10.70;;;;;;;0.80;100.00;99100.06;109469;1251;61254;-64
2023/11/18 02:36:01;;;;;;;13.50;10.80;;;;;;;0.82;100.00;99104.82;109571;1250;60355;-64
2023/11/18 02:38:35;;;;;;;12.30;11.10;;;;;;;0.82;100.00;99107.06;109451;1251;74618;-65
2023/11/18 02:41:08;;;;;;;11.40;10.10;;;;;;;0.84;100.00;99113.41;109467;1251;66644;-65
2023/11/18 02:43:37;;;;;;;11.10;10.10;;;;;;;0.84;100.00;99116.67;109489;1251;71806;-65
2023/11/18 02:46:04;;;;;;;12.20;10.10;;;;;;;0.85;100.00;99114.58;109540;1251;59256;-65
2023/11/18 02:48:32;;;;;;;11.20;10.10;;;;;;;0.85;100.00;99117.34;109540;1254;58824;-65
2023/11/18 02:50:59;;;;;;;12.20;11.00;;;;;;;0.84;100.00;99117.02;109611;1251;74547;-65
2023/11/18 02:53:25;;;;;;;12.50;11.20;;;;;;;0.86;100.00;99120.39;109658;1251;66451;-65
2023/11/18 02:55:52;;;;;;;12.00;10.80;;;;;;;0.86;100.00;99123.87;109548;1251;72420;-65
2023/11/18 02:58:19;;;;;;;10.60;9.50;;;;;;;0.84;100.00;99125.58;109495;1253;61007;-66
2023/11/18 03:00:46;;;;;;;12.90;11.30;;;;;;;0.83;100.00;99126.76;109645;1251;58894;-65
2023/11/18 03:03:14;;;;;;;11.90;9.90;;;;;;;0.82;100.00;99127.15;109594;1251;74433;-65
2023/11/18 03:05:40;;;;;;;9.80;8.80;;;;;;;0.82;100.00;99129.41;109646;1250;67903;-65
2023/11/18 03:08:07;;;;;;;15.30;9.80;;;;;;;0.82;100.00;99128.56;109559;1251;59043;-65
2023/11/18 03:10:35;;;;;;;11.30;10.00;;;;;;;0.82;100.00;99131.87;109596;1251;60931;-65
2023/11/18 03:13:01;;;;;;;11.80;10.30;;;;;;;0.83;100.00;99134.97;109647;1250;60083;-65
2023/11/18 03:15:28;;;;;;;12.00;10.50;;;;;;;0.82;100.00;99133.98;109581;1251;73380;-65
2023/11/18 03:17:55;;;;;;;10.60;9.50;;;;;;;0.82;100.00;99134.67;109633;1251;67855;-65
2023/11/18 03:20:22;;;;;;;11.70;10.60;;;;;;;0.82;100.00;99135.91;109656;1250;71070;-66
2023/11/18 03:22:51;;;;;;;12.10;10.50;;;;;;;0.81;100.00;99135.25;109645;1251;61347;-66
2023/11/18 03:25:19;;;;;;;13.10;11.70;;;;;;;0.82;100.00;99138.70;109588;1251;59560;-66
2023/11/18 03:27:45;;;;;;;12.70;10.70;;;;;;;0.81;100.00;99136.02;109583;1251;74139;-66
2023/11/18 03:30:12;;;;;;;10.80;9.70;;;;;;;0.81;100.00;99138.44;109702;1250;59007;-66
2023/11/18 03:32:39;;;;;;;12.00;10.60;;;;;;;0.81;100.00;99142.65;109658;1250;71777;-66
2023/11/18 03:35:08;;;;;;;11.30;10.20;;;;;;;0.81;100.00;99149.09;109575;1251;60061;-65
2023/11/18 03:37:38;;;;;;;12.40;11.20;;;;;;;0.82;100.00;99156.73;109679;1250;59176;-66
2023/11/18 03:40:12;;;;;;;11.80;10.50;;;;;;;0.81;100.00;99161.09;109501;1251;73580;-65
2023/11/18 03:42:39;;;;;;;12.20;10.20;;;;;;;0.82;100.00;99158.81;109473;1250;66798;-65
2023/11/18 03:45:06;;;;;;;12.00;10.80;;;;;;;0.82;100.00;99162.11;109478;1251;72493;-65
2023/11/18 03:47:33;;;;;;;11.40;10.30;;;;;;;0.82;100.00;99160.34;109514;1251;60876;-65
2023/11/18 03:50:00;;;;;;;11.60;10.40;;;;;;;0.82;100.00;99166.59;109635;1250;60127;-65
2023/11/18 03:52:27;;;;;;;11.70;10.50;;;;;;;0.83;100.00;99168.88;109516;1250;74362;-65
2023/11/18 03:54:55;;;;;;;11.80;10.60;;;;;;;0.83;100.00;99169.15;109558;1250;67786;-65
2023/11/18 03:57:21;;;;;;;11.40;10.20;;;;;;;0.83;100.00;99167.59;109550;1251;72664;-65
2023/11/18 03:59:48;;;;;;;11.30;10.20;;;;;;;0.83;100.00;99167.39;109507;1250;60825;-65
2023/11/18 04:02:15;;;;;;;11.40;10.30;;;;;;;0.84;100.00;99169.24;109456;1251;58962;-65
2023/11/18 04:04:41;;;;;;;13.80;11.20;;;;;;;0.84;100.00;99166.44;109461;1250;74639;-65
2023/11/18 04:07:08;;;;;;;12.20;11.00;;;;;;;0.85;100.00;99167.46;109461;1250;68227;-65
2023/11/18 04:09:34;;;;;;;11.40;10.30;;;;;;;0.86;100.00;99171.06;109503;1251;59505;-66
2023/11/18 04:12:01;;;;;;;13.30;11.30;;;;;;;0.86;100.00;99173.45;109392;1251;59994;-65
2023/11/18 04:14:28;;;;;;;11.90;10.70;;;;;;;0.87;100.00;99175.50;109556;1250;59248;-66
2023/11/18 04:16:55;;;;;;;12.20;10.80;;;;;;;0.87;100.00;99177.02;109621;1250;74697;-65
2023/11/18 04:19:22;;;;;;;12.30;10.80;;;;;;;0.88;100.00;99181.88;109577;1251;66035;-66
2023/11/18 04:21:49;;;;;;;11.90;10.70;;;;;;;0.89;100.00;99184.44;109644;1250;58973;-66
2023/11/18 04:24:15;;;;;;;13.30;11.80;;;;;;;0.89;100.00;99187.71;109573;1250;61026;-66
2023/11/18 04:26:42;;;;;;;12.70;11.40;;;;;;;0.89;100.00;99191.35;109645;1251;59006;-66
2023/11/18 04:29:08;;;;;;;10.80;9.70;;;;;;;0.89;100.00;99191.36;109543;1251;73210;-66
2023/11/18 04:31:36;;;;;;;11.70;10.50;;;;;;;0.90;100.00;99191.46;109620;1251;59057;-66
2023/11/18 04:34:04;;;;;;;11.70;10.50;;;;;;;0.92;100.00;99192.41;109598;1251;72587;-66
2023/11/18 04:36:31;;;;;;;12.40;11.10;;;;;;;0.93;100.00;99189.19;109602;1251;59973;-68
2023/11/18 04:38:58;;;;;;;12.20;11.00;;;;;;;0.93;100.00;99190.89;109659;1250;58925;-67
2023/11/18 04:41:24;;;;;;;11.70;10.00;;;;;;;0.93;100.00;99193.36;109649;1250;73103;-67
2023/11/18 04:43:51;;;;;;;11.80;10.60;;;;;;;0.93;100.00;99193.39;109676;1250;59430;-67
2023/11/18 04:46:19;;;;;;;12.20;11.00;;;;;;;0.92;100.00;99196.10;109613;1251;72481;-67
2023/11/18 04:48:45;;;;;;;12.40;11.10;;;;;;;0.91;100.00;99193.87;109632;1250;59695;-67
2023/11/18 04:51:12;;;;;;;12.40;11.20;;;;;;;0.92;100.00;99194.64;109635;1250;58864;-67
2023/11/18 04:53:39;;;;;;;14.20;11.10;;;;;;;0.93;100.00;99200.02;109664;1250;73100;-67
2023/11/18 04:56:09;;;;;;;13.90;10.70;;;;;;;0.93;100.00;99197.34;109666;1250;66473;-67
2023/11/18 04:58:39;;;;;;;12.30;11.10;;;;;;;0.94;100.00;99198.88;109643;1251;71786;-67
2023/11/18 05:01:06;;;;;;;11.70;10.50;;;;;;;0.95;100.00;99202.79;109614;1251;60099;-67
2023/11/18 05:03:33;;;;;;;11.40;10.30;;;;;;;0.96;100.00;99205.36;109595;1250;58927;-67
2023/11/18 05:05:59;;;;;;;14.50;12.40;;;;;;;0.97;100.00;99204.91;109646;1250;73093;-68
2023/11/18 05:08:26;;;;;;;13.90;12.40;;;;;;;0.97;100.00;99204.95;109594;1251;66031;-68
2023/11/18 05:10:54;;;;;;;12.50;10.80;;;;;;;0.97;100.00;99205.81;109674;1250;72375;-67
2023/11/18 05:13:21;;;;;;;13.30;11.90;;;;;;;0.98;100.00;99203.46;109623;1251;60753;-67
2023/11/18 05:15:49;;;;;;;12.80;11.40;;;;;;;0.98;100.00;99204.53;109675;1250;59128;-67
2023/11/18 05:18:16;;;;;;;12.70;11.40;;;;;;;0.98;100.00;99209.04;109636;1250;73185;-67
2023/11/18 05:20:46;;;;;;;13.40;11.10;;;;;;;1.00;100.00;99214.84;109643;1251;67790;-67
2023/11/18 05:23:12;;;;;;;15.10;12.30;;;;;;;1.00;100.00;99214.60;109663;1250;72497;-67
2023/11/18 05:25:39;;;;;;;12.60;10.90;;;;;;;1.01;100.00;99217.49;109667;1251;59620;-67
2023/11/18 05:28:09;;;;;;;13.50;12.10;;;;;;;1.02;100.00;99218.70;109705;1249;60166;-67
2023/11/18 05:30:36;;;;;;;12.30;10.30;;;;;;;1.01;100.00;99221.16;109638;1251;73492;-67
2023/11/18 05:33:05;;;;;;;11.40;10.10;;;;;;;1.01;100.00;99224.88;109646;1249;66705;-67
2023/11/18 05:35:32;;;;;;;13.40;11.30;;;;;;;1.00;100.00;99229.12;109615;1250;70928;-67
2023/11/18 05:37:59;;;;;;;11.30;10.10;;;;;;;1.01;100.00;99231.88;109649;1251;61083;-68
2023/11/18 05:40:28;;;;;;;14.40;11.30;;;;;;;1.01;100.00;99235.33;109644;1250;60263;-67
2023/11/18 05:42:55;;;;;;;11.90;10.60;;;;;;;1.02;100.00;99235.80;109654;1250;74449;-67
2023/11/18 05:45:27;;;;;;;13.20;11.50;;;;;;;1.02;100.00;99236.84;109684;1250;67647;-67
2023/11/18 05:47:55;;;;;;;14.10;11.70;;;;;;;1.03;100.00;99236.42;109621;1251;71503;-67
2023/11/18 05:50:22;;;;;;;15.00;12.90;;;;;;;1.02;100.00;99239.25;109610;1250;60999;-67
2023/11/18 05:52:48;;;;;;;15.50;11.70;;;;;;;1.03;100.00;99241.64;109608;1250;59117;-67
2023/11/18 05:55:15;;;;;;;14.70;12.60;;;;;;;1.03;100.00;99247.05;109703;1251;59498;-67
2023/11/18 05:57:44;;;;;;;12.90;11.50;;;;;;;1.03;100.00;99244.10;109729;1250;67877;-67
2023/11/18 06:00:15;;;;;;;14.00;11.90;;;;;;;1.04;100.00;99248.05;109644;1250;72480;-67
2023/11/18 06:02:43;;;;;;;14.10;12.30;;;;;;;1.04;100.00;99248.91;109628;1250;59673;-66
2023/11/18 06:05:12;;;;;;;14.60;11.80;;;;;;;1.05;100.00;99253.02;109644;1250;58878;-66
2023/11/18 06:07:43;;;;;;;14.70;12.20;;;;;;;1.07;100.00;99253.55;109654;1250;73471;-66
2023/11/18 06:10:09;;;;;;;12.50;11.20;;;;;;;1.08;100.00;99266.59;109676;1250;66563;-66
2023/11/18 06:12:38;;;;;;;15.40;11.40;;;;;;;1.09;100.00;99271.59;109625;1251;72695;-66
2023/11/18 06:15:05;;;;;;;14.70;11.40;;;;;;;1.10;100.00;99271.13;109603;1251;60937;-66
2023/11/18 06:17:32;;;;;;;13.80;11.00;;;;;;;1.12;100.00;99273.95;109665;1250;59015;-66
2023/11/18 06:19:59;;;;;;;11.40;10.20;;;;;;;1.14;100.00;99283.95;109610;1250;73502;-66
2023/11/18 06:22:25;;;;;;;11.00;9.70;;;;;;;1.14;100.00;99282.02;109631;1250;58922;-66
2023/11/18 06:24:52;;;;;;;14.90;11.20;;;;;;;1.14;100.00;99281.99;109637;1251;72746;-66
2023/11/18 06:27:22;;;;;;;13.80;10.90;;;;;;;1.15;100.00;99284.91;109545;1250;61113;-66
2023/11/18 06:29:50;;;;;;;13.70;10.70;;;;;;;1.15;100.00;99286.45;109703;1250;58891;-66
2023/11/18 06:32:17;;;;;;;13.00;11.60;;;;;;;1.16;100.00;99289.20;109558;1250;73397;-68
2023/11/18 06:34:43;;;;;;;13.80;11.30;;;;;;;1.17;100.00;99292.48;109697;1251;67802;-69
2023/11/18 06:37:10;;;;;;;11.40;10.10;;;;;;;1.18;100.00;99298.81;109641;1250;70623;-67
2023/11/18 06:39:43;;;;;;;12.80;11.50;;;;;;;1.19;100.00;99300.13;109589;1250;60322;-67
2023/11/18 06:42:11;;;;;;;11.50;10.30;;;;;;;1.21;100.00;99305.94;109582;1251;59213;-66
2023/11/18 06:44:38;;;;;;;12.10;10.80;;;;;;;1.23;100.00;99311.36;109672;1250;74642;-67
2023/11/18 06:47:06;;;;;;;12.60;11.30;;;;;;;1.25;100.00;99311.06;109682;1250;67742;-66
2023/11/18 06:49:36;;;;;;;12.80;11.00;;;;;;;1.26;100.00;99314.13;109637;1250;72367;-65
2023/11/18 06:52:03;;;;;;;11.70;10.40;;;;;;;1.27;100.00;99319.30;109508;1251;60946;-66
2023/11/18 06:54:31;;;;;;;12.70;11.40;;;;;;;1.29;100.00;99322.16;109655;1250;59289;-66
2023/11/18 06:56:59;;;;;;;11.90;9.60;;;;;;;1.30;100.00;99322.95;109636;1250;73039;-66
2023/11/18 06:59:25;;;;;;;11.20;10.00;;;;;;;1.31;100.00;99323.88;109605;1250;67821;-69
2023/11/18 07:01:52;;;;;;;12.00;9.70;;;;;;;1.33;100.00;99323.03;109655;1251;58861;-68
2023/11/18 07:04:19;;;;;;;12.90;10.20;;;;;;;1.35;100.00;99325.54;109524;1251;61513;-69
2023/11/18 07:06:45;;;;;;;12.40;11.00;;;;;;;1.36;100.00;99328.91;109674;1250;60172;-69
2023/11/18 07:09:13;;;;;;;12.40;11.20;;;;;;;1.38;100.00;99330.02;109705;1250;74455;-70
2023/11/18 07:11:40;;;;;;;12.30;11.00;;;;;;;1.39;100.00;99328.55;109663;1250;67778;-68
2023/11/18 07:14:10;;;;;;;12.30;10.40;;;;;;;1.40;100.00;99329.98;109594;1250;72737;-68
2023/11/18 07:16:40;;;;;;;12.30;10.40;;;;;;;1.43;100.00;99328.91;109541;1251;61078;-62
2023/11/18 07:19:07;;;;;;;12.00;10.70;;;;;;;1.45;100.00;99328.36;109647;1250;60093;-66
2023/11/18 07:21:34;;;;;;;12.40;11.10;;;;;;;1.48;100.00;99325.77;109602;1251;73902;-68
2023/11/18 07:24:02;;;;;;;11.10;10.00;;;;;;;1.50;100.00;99326.47;109682;1250;67783;-68
2023/11/18 07:26:28;;;;;;;12.70;10.90;;;;;;;1.53;100.00;99329.73;109523;1251;71101;-67
2023/11/18 07:28:56;;;;;;;12.20;10.80;;;;;;;1.54;100.00;99332.44;109687;1250;61137;-66
2023/11/18 07:31:22;;;;;;;11.90;10.60;;;;;;;1.57;100.00;99333.30;109603;1250;60152;-68
2023/11/18 07:33:49;;;;;;;12.50;10.80;;;;;;;1.58;100.00;99337.90;109630;1250;73958;-69
2023/11/18 07:36:16;;;;;;;12.30;11.00;;;;;;;1.60;100.00;99338.63;109630;1250;67663;-68
2023/11/18 07:38:43;;;;;;;12.70;10.60;;;;;;;1.61;100.00;99340.45;109525;1250;72005;-68
2023/11/18 07:41:09;;;;;;;12.60;11.10;;;;;;;1.62;100.00;99339.16;109564;1250;61163;-70
2023/11/18 07:43:36;;;;;;;11.10;10.00;;;;;;;1.64;100.00;99342.54;109638;1250;58904;-69
2023/11/18 07:46:03;;;;;;;11.50;10.30;;;;;;;1.65;100.00;99344.89;109629;1250;74388;-68
2023/11/18 07:48:31;;;;;;;13.70;11.20;;;;;;;1.67;100.00;99346.65;109626;1250;66652;-66
2023/11/18 07:50:57;;;;;;;12.40;10.80;;;;;;;1.69;100.00;99349.97;109617;1250;72374;-70
2023/11/18 07:53:24;;;;;;;12.30;10.70;;;;;;;1.70;100.00;99351.08;109588;1250;59174;-67
2023/11/18 07:55:50;;;;;;;12.50;11.20;;;;;;;1.73;100.00;99353.89;109624;1251;58953;-67
2023/11/18 07:58:18;;;;;;;13.60;11.10;;;;;;;1.75;100.00;99355.08;109607;1250;74599;-68
2023/11/18 08:00:49;;;;;;;11.50;10.40;;;;;;;1.79;100.00;99355.33;109684;1250;66367;-68
2023/11/18 08:03:15;;;;;;;12.40;10.70;;;;;;;1.83;100.00;99353.58;109681;1250;72713;-66
2023/11/18 08:05:46;;;;;;;12.20;10.90;;;;;;;1.88;100.00;99353.20;109522;1250;60875;-66
2023/11/18 08:08:13;;;;;;;13.20;11.70;;;;;;;1.92;100.00;99351.18;109613;1250;59010;-66
2023/11/18 08:10:40;;;;;;;11.10;10.00;;;;;;;1.95;100.00;99352.30;109638;1251;72208;-63
2023/11/18 08:13:07;;;;;;;12.40;11.10;;;;;;;1.99;100.00;99353.95;109542;1250;67613;-67
2023/11/18 08:15:35;;;;;;;13.50;10.20;;;;;;;2.00;100.00;99349.69;109570;1250;72652;-68
2023/11/18 08:18:02;;;;;;;12.40;11.00;;;;;;;2.03;100.00;99355.05;109654;1250;60006;-69
2023/11/18 08:20:30;;;;;;;13.00;11.20;;;;;;;2.05;100.00;99362.52;109566;1250;59035;-67
2023/11/18 08:22:57;;;;;;;12.30;9.90;;;;;;;2.08;100.00;99360.39;109695;1250;74657;-66
2023/11/18 08:25:23;;;;;;;13.10;10.90;;;;;;;2.11;100.00;99356.84;109654;1251;66636;-66
2023/11/18 08:27:50;;;;;;;12.60;11.30;;;;;;;2.13;100.00;99356.14;109610;1251;73898;-68
2023/11/18 08:30:17;;;;;;;14.00;11.50;;;;;;;2.15;100.00;99362.96;109617;1250;58957;-66
2023/11/18 08:32:45;;;;;;;13.20;11.40;;;;;;;2.16;100.00;99366.20;109659;1250;60099;-67
2023/11/18 08:35:15;;;;;;;12.00;10.80;;;;;;;2.19;100.00;99370.01;109645;1250;73177;-67
2023/11/18 08:37:42;;;;;;;12.00;10.60;;;;;;;2.21;100.00;99369.69;109689;1250;66819;-68
2023/11/18 08:40:16;;;;;;;13.40;12.00;;;;;;;2.23;100.00;99371.20;109589;1250;72505;-66
2023/11/18 08:42:49;;;;;;;14.40;12.10;;;;;;;2.28;100.00;99369.66;109588;1250;61165;-65
2023/11/18 08:45:17;;;;;;;13.60;12.20;;;;;;;2.32;100.00;99366.45;109655;1250;60175;-67
2023/11/18 08:47:44;;;;;;;14.00;12.40;;;;;;;2.38;100.00;99367.21;109634;1250;73179;-68
2023/11/18 08:50:12;;;;;;;14.50;12.70;;;;;;;2.47;100.00;99364.95;109565;1251;67792;-65
2023/11/18 08:52:43;;;;;;;15.80;13.70;;;;;;;2.57;100.00;99365.80;109517;1251;72655;-65
2023/11/18 08:55:20;;;;;;;13.60;12.10;;;;;;;2.64;100.00;99362.70;109672;1250;60019;-65
2023/11/18 08:57:59;;;;;;;16.30;13.80;;;;;;;2.71;100.00;99359.88;109615;1250;60135;-65
2023/11/18 09:03:24;;;;;;;14.00;11.60;;;;;;;2.85;100.00;99353.27;109600;1251;67678;-68
2023/11/18 09:05:58;;;;;;;15.20;12.50;;;;;;;2.92;100.00;99347.78;109615;1250;72494;-66
2023/11/18 09:08:31;;;;;;;14.10;10.90;;;;;;;2.98;100.00;99348.90;109573;1250;61162;-66
2023/11/18 09:10:59;;;;;;;12.20;10.20;;;;;;;3.03;100.00;99343.70;109613;1251;60082;-65
2023/11/18 09:13:29;;;;;;;11.70;10.50;;;;;;;3.08;100.00;99342.59;109612;1250;74356;-65
2023/11/18 09:15:56;;;;;;;11.90;10.70;;;;;;;3.10;100.00;99342.92;109558;1251;67725;-70
2023/11/18 09:18:24;;;;;;;12.30;10.00;;;;;;;3.15;100.00;99341.87;109635;1250;71864;-67
2023/11/18 09:20:52;;;;;;;10.10;9.10;;;;;;;3.19;100.00;99342.43;109670;1251;60213;-66
2023/11/18 09:23:19;;;;;;;10.70;9.60;;;;;;;3.23;100.00;99340.13;109634;1251;58881;-70
2023/11/18 09:25:46;;;;;;;12.20;9.60;;;;;;;3.29;100.00;99340.55;109622;1251;73263;-70
2023/11/18 09:28:14;;;;;;;10.40;9.40;;;;;;;3.34;100.00;99344.31;109657;1250;65519;-68
2023/11/18 09:30:49;;;;;;;10.20;9.20;;;;;;;3.37;100.00;99346.30;109551;1250;71267;-69
2023/11/18 09:33:25;;;;;;;10.70;9.60;;;;;;;3.39;100.00;99354.59;109488;1251;59623;-69
2023/11/18 09:35:55;;;;;;;10.30;9.20;;;;;;;3.40;100.00;99354.96;109633;1251;60051;-70
2023/11/18 09:38:22;;;;;;;14.10;9.80;;;;;;;3.39;100.00;99352.59;109694;1251;74405;-71
2023/11/18 09:40:49;;;;;;;11.10;9.60;;;;;;;3.39;100.00;99353.45;109645;1251;66998;-66
2023/11/18 09:43:16;;;;;;;11.20;9.50;;;;;;;3.37;100.00;99353.98;109502;1251;72483;-68
2023/11/18 09:45:45;;;;;;;11.80;10.40;;;;;;;3.36;100.00;99354.47;109551;1251;59061;-65
2023/11/18 09:48:13;;;;;;;15.20;12.90;;;;;;;3.33;100.00;99361.00;109586;1250;59209;-61
2023/11/18 09:50:41;;;;;;;14.40;12.50;;;;;;;3.30;100.00;99362.49;109621;1251;74384;-62
2023/11/18 09:53:11;;;;;;;14.00;12.60;;;;;;;3.28;100.00;99363.02;109484;1250;184242;-66
2023/11/18 09:55:49;;;;;;;12.60;11.30;;;;;;;3.27;100.00;99366.60;109617;1250;72440;-69
2023/11/18 09:58:18;;;;;;;11.90;10.40;;;;;;;3.25;100.00;99365.95;109569;1250;59632;-72
2023/11/18 10:00:47;;;;;;;13.80;11.30;;;;;;;3.22;100.00;99364.95;109608;1251;58900;-66
2023/11/18 10:03:15;;;;;;;11.60;10.30;;;;;;;3.20;100.00;99363.91;109616;1251;73528;-69
2023/11/18 10:05:42;;;;;;;13.40;10.80;;;;;;;3.18;100.00;99357.58;109661;1250;67698;-70
2023/11/18 10:08:09;;;;;;;18.10;13.10;;;;;;;3.17;100.00;99355.86;109578;1251;72722;-68
2023/11/18 10:10:36;;;;;;;29.20;16.30;;;;;;;3.18;100.00;99351.23;109652;1251;61859;-67
2023/11/18 10:13:08;;;;;;;33.40;19.00;;;;;;;3.19;100.00;99357.65;109666;1251;60216;-70
2023/11/18 10:15:34;;;;;;;16.40;12.20;;;;;;;3.22;100.00;99363.02;109642;1250;74442;-68
2023/11/18 10:18:06;;;;;;;13.00;11.70;;;;;;;3.24;100.00;99361.59;109671;1251;66753;-69
2023/11/18 10:20:39;;;;;;;21.20;13.70;;;;;;;3.25;100.00;99361.30;109637;1251;72443;-66
2023/11/18 10:23:12;;;;;;;20.00;14.20;;;;;;;3.27;100.00;99364.52;109577;1250;59374;-64
2023/11/18 10:25:49;;;;;;;21.60;15.40;;;;;;;3.28;100.00;99364.27;109687;1251;60055;-70
2023/11/18 10:28:28;;;;;;;13.70;10.70;;;;;;;3.28;100.00;99366.00;109621;1251;74469;-69
2023/11/18 10:31:05;;;;;;;12.90;10.90;;;;;;;3.27;100.00;99363.77;109541;1251;66435;-70
2023/11/18 10:33:37;;;;;;;11.50;10.00;;;;;;;3.27;100.00;99362.02;109603;1254;72432;-71
2023/11/18 10:36:06;;;;;;;10.50;9.00;;;;;;;3.30;100.00;99363.16;109592;1251;60995;-70
2023/11/18 10:38:39;;;;;;;11.00;8.80;;;;;;;3.33;100.00;99363.98;109617;1251;59008;-69
2023/11/18 10:41:05;;;;;;;8.90;7.30;;;;;;;3.36;100.00;99369.86;109593;1251;74458;-70
2023/11/18 10:43:35;;;;;;;8.50;7.70;;;;;;;3.38;100.00;99373.80;109560;1251;67690;-70
2023/11/18 10:46:11;;;;;;;11.90;9.90;;;;;;;3.40;100.00;99377.45;109631;1251;71066;-69
2023/11/18 10:48:41;;;;;;;13.00;9.90;;;;;;;3.43;100.00;99380.34;109604;1251;60843;-69
2023/11/18 10:51:10;;;;;;;11.70;10.10;;;;;;;3.47;100.00;99382.11;109596;1251;60020;-65
2023/11/18 10:53:37;;;;;;;12.80;11.40;;;;;;;3.53;100.00;99384.56;109580;1251;73027;-67
2023/11/18 10:56:07;;;;;;;11.40;10.20;;;;;;;3.59;100.00;99386.48;109576;1251;67930;-68
2023/11/18 10:58:40;;;;;;;10.10;9.10;;;;;;;3.64;100.00;99386.73;109515;1250;71475;-68
2023/11/18 11:01:11;;;;;;;11.40;10.30;;;;;;;3.69;100.00;99387.63;109500;1251;59828;-68
2023/11/18 11:03:56;;;;;;;13.00;10.00;;;;;;;3.70;100.00;99383.30;109655;1251;58970;-68
2023/11/18 11:06:30;;;;;;;10.30;9.30;;;;;;;3.72;100.00;99379.98;109607;1251;73151;-68
2023/11/18 11:08:59;;;;;;;12.30;9.70;;;;;;;3.76;100.00;99382.30;109704;1251;67707;-68
2023/11/18 11:11:34;;;;;;;11.00;9.70;;;;;;;3.80;100.00;99381.23;109627;1251;73351;-69
2023/11/18 11:14:00;;;;;;;9.80;8.80;;;;;;;3.85;100.00;99382.93;109579;1253;59368;-69
2023/11/18 11:16:43;;;;;;;10.00;9.00;;;;;;;3.89;100.00;99384.52;109678;1250;59324;-70
2023/11/18 11:19:27;;;;;;;9.30;8.40;;;;;;;3.93;100.00;99382.73;109702;1251;74672;-68